createdAt,value
2019-02-24T00:01:33.841Z,15.30
2019-02-24T00:04:02.251Z,16.12
2019-02-24T00:06:30.687Z,16.10
2019-02-24T00:08:59.096Z,16.67
2019-02-24T00:11:27.867Z,15.85
2019-02-24T00:13:56.280Z,16.42
2019-02-24T00:16:25.638Z,16.75
2019-02-24T00:18:54.039Z,19.25
2019-02-24T00:21:22.455Z,16.82
2019-02-24T00:23:50.878Z,17.67
2019-02-24T00:26:19.288Z,17.10
2019-02-24T00:28:47.710Z,17.27
2019-02-24T00:31:16.108Z,18.12
2019-02-24T00:33:44.511Z,19.80
2019-02-24T00:36:12.927Z,18.27
2019-02-24T00:38:41.317Z,18.27
2019-02-24T00:41:10.298Z,17.70
2019-02-24T00:43:38.705Z,18.15
2019-02-24T00:46:07.173Z,17.50
2019-02-24T00:48:35.628Z,18.48
2019-02-24T00:51:04.088Z,19.75
2019-02-24T00:53:32.521Z,18.67
2019-02-24T00:56:00.944Z,17.67
2019-02-24T00:58:29.381Z,17.23
2019-02-24T01:00:58.072Z,18.90
2019-02-24T01:03:26.486Z,18.87
2019-02-24T01:05:54.948Z,19.12
2019-02-24T01:08:23.440Z,18.25
2019-02-24T01:10:51.859Z,17.87
2019-02-24T01:13:20.278Z,18.73
2019-02-24T01:15:48.699Z,18.48
2019-02-24T01:18:17.908Z,18.43
2019-02-24T01:20:46.342Z,18.37
2019-02-24T01:23:14.745Z,18.48
2019-02-24T01:25:43.163Z,19.87
2019-02-24T01:28:11.571Z,19.37
2019-02-24T01:30:39.970Z,22.45
2019-02-24T01:33:08.402Z,20.48
2019-02-24T01:35:36.802Z,21.05
2019-02-24T01:38:05.486Z,21.27
2019-02-24T01:40:33.870Z,19.67
2019-02-24T01:43:02.300Z,28.02
2019-02-24T01:45:30.700Z,24.70
2019-02-24T01:47:59.121Z,22.60
2019-02-24T01:50:27.544Z,20.52
2019-02-24T01:52:56.003Z,18.73
2019-02-24T01:55:24.476Z,18.30
2019-02-24T01:57:52.921Z,18.48
2019-02-24T02:00:21.352Z,18.70
2019-02-24T02:02:49.775Z,19.62
2019-02-24T02:05:18.223Z,18.48
2019-02-24T02:07:46.630Z,18.77
2019-02-24T02:10:15.060Z,18.85
2019-02-24T02:12:43.538Z,19.05
2019-02-24T02:15:12.143Z,19.30
2019-02-24T02:17:40.560Z,18.05
2019-02-24T02:20:09.588Z,19.52
2019-02-24T02:22:37.987Z,19.10
2019-02-24T02:25:08.136Z,20.82
2019-02-24T02:27:36.544Z,19.12
2019-02-24T02:30:07.473Z,19.70
2019-02-24T02:32:35.861Z,19.75
2019-02-24T02:35:05.931Z,19.75
2019-02-24T02:37:34.335Z,19.42
2019-02-24T02:40:03.208Z,20.43
2019-02-24T02:42:31.776Z,20.80
2019-02-24T02:45:00.318Z,20.00
2019-02-24T02:47:29.159Z,20.23
2019-02-24T02:49:57.575Z,21.42
2019-02-24T02:52:26.001Z,22.22
2019-02-24T02:54:54.428Z,21.37
2019-02-24T02:57:22.856Z,21.05
2019-02-24T02:59:51.251Z,20.20
2019-02-24T03:02:24.363Z,21.25
2019-02-24T03:04:49.779Z,21.10
2019-02-24T03:07:22.822Z,21.90
2019-02-24T03:09:51.256Z,21.33
2019-02-24T03:12:19.665Z,21.68
2019-02-24T03:14:48.087Z,21.50
2019-02-24T03:17:16.483Z,21.20
2019-02-24T03:19:44.925Z,21.10
2019-02-24T03:22:14.661Z,20.85
2019-02-24T03:24:43.980Z,22.37
2019-02-24T03:27:12.400Z,20.08
2019-02-24T03:29:40.809Z,21.65
2019-02-24T03:32:09.228Z,21.77
2019-02-24T03:34:37.643Z,22.42
2019-02-24T03:37:06.090Z,22.07
2019-02-24T03:39:34.854Z,23.10
2019-02-24T03:42:03.329Z,22.00
2019-02-24T03:44:31.732Z,23.07
2019-02-24T03:47:00.136Z,21.48
2019-02-24T03:49:28.533Z,22.00
2019-02-24T03:51:56.953Z,21.00
2019-02-24T03:54:25.359Z,21.07
2019-02-24T03:56:53.764Z,21.12
2019-02-24T03:59:22.194Z,21.02
2019-02-24T04:01:50.768Z,20.57
2019-02-24T04:04:19.171Z,21.07
2019-02-24T04:06:47.567Z,21.12
2019-02-24T04:09:15.967Z,21.75
2019-02-24T04:11:44.371Z,22.42
2019-02-24T04:14:12.774Z,21.77
2019-02-24T04:16:41.430Z,22.22
2019-02-24T04:19:09.829Z,21.80
2019-02-24T04:21:38.240Z,21.02
2019-02-24T04:24:06.652Z,22.13
2019-02-24T04:26:35.047Z,22.70
2019-02-24T04:29:03.447Z,21.65
2019-02-24T04:31:31.854Z,22.05
2019-02-24T04:34:00.260Z,22.82
2019-02-24T04:36:29.074Z,21.77
2019-02-24T04:38:57.968Z,22.10
2019-02-24T04:41:26.481Z,22.48
2019-02-24T04:43:54.893Z,21.82
2019-02-24T04:46:23.310Z,22.30
2019-02-24T04:48:51.990Z,23.18
2019-02-24T04:51:20.387Z,21.55
2019-02-24T04:53:48.796Z,23.22
2019-02-24T04:56:17.282Z,22.55
2019-02-24T04:58:45.684Z,22.62
2019-02-24T05:01:14.087Z,24.55
2019-02-24T05:03:42.512Z,23.70
2019-02-24T05:06:10.911Z,23.50
2019-02-24T05:08:39.343Z,23.32
2019-02-24T05:11:07.752Z,24.90
2019-02-24T05:13:36.156Z,24.50
2019-02-24T05:16:04.551Z,25.75
2019-02-24T05:18:32.966Z,24.82
2019-02-24T05:21:01.360Z,24.32
2019-02-24T05:23:29.798Z,24.82
2019-02-24T05:25:58.199Z,26.50
2019-02-24T05:28:26.628Z,26.90
2019-02-24T05:30:55.032Z,26.73
2019-02-24T05:33:23.455Z,26.20
2019-02-24T05:35:51.928Z,27.65
2019-02-24T05:38:25.411Z,25.80
2019-02-24T05:40:53.799Z,26.17
2019-02-24T05:43:22.219Z,25.50
2019-02-24T05:45:50.627Z,26.70
2019-02-24T05:48:19.052Z,25.97
2019-02-24T05:50:47.452Z,26.25
2019-02-24T05:53:15.868Z,25.40
2019-02-24T05:55:44.302Z,25.75
2019-02-24T05:58:12.789Z,26.75
2019-02-24T06:00:41.513Z,25.45
2019-02-24T06:03:10.014Z,26.27
2019-02-24T06:05:38.439Z,25.77
2019-02-24T06:08:06.836Z,27.77
2019-02-24T06:10:35.244Z,27.33
2019-02-24T06:13:03.632Z,27.00
2019-02-24T06:15:32.057Z,27.67
2019-02-24T06:18:00.454Z,27.97
2019-02-24T06:20:28.881Z,26.47
2019-02-24T06:22:57.303Z,26.40
2019-02-24T06:25:25.714Z,26.97
2019-02-24T06:27:54.108Z,26.53
2019-02-24T06:30:22.540Z,26.60
2019-02-24T06:32:50.932Z,25.60
2019-02-24T06:35:19.340Z,28.20
2019-02-24T06:37:47.747Z,26.55
2019-02-24T06:40:16.150Z,25.70
2019-02-24T06:42:44.568Z,25.37
2019-02-24T06:45:12.992Z,26.75
2019-02-24T06:47:44.106Z,26.25
2019-02-24T06:50:12.560Z,26.70
2019-02-24T06:52:41.049Z,26.77
2019-02-24T06:55:09.531Z,26.17
2019-02-24T06:57:37.947Z,24.57
2019-02-24T07:00:14.193Z,25.27
2019-02-24T07:02:39.627Z,25.65
2019-02-24T07:05:08.845Z,27.75
2019-02-24T07:07:37.267Z,25.40
2019-02-24T07:10:07.065Z,24.43
2019-02-24T07:12:35.575Z,24.25
2019-02-24T07:15:06.815Z,24.98
2019-02-24T07:17:35.307Z,25.50
2019-02-24T07:20:04.345Z,24.70
2019-02-24T07:22:32.752Z,25.40
2019-02-24T07:25:01.168Z,24.55
2019-02-24T07:27:29.584Z,25.17
2019-02-24T07:29:57.981Z,22.98
2019-02-24T07:32:26.407Z,24.20
2019-02-24T07:34:54.808Z,23.77
2019-02-24T07:37:23.320Z,24.50
2019-02-24T07:39:51.755Z,23.70
2019-02-24T07:42:20.181Z,24.98
2019-02-24T07:44:48.571Z,25.05
2019-02-24T07:47:16.991Z,24.98
2019-02-24T07:49:45.684Z,25.75
2019-02-24T07:52:14.103Z,23.98
2019-02-24T07:54:42.523Z,24.30
2019-02-24T07:57:10.935Z,24.35
2019-02-24T07:59:39.632Z,24.92
2019-02-24T08:02:08.067Z,24.70
2019-02-24T08:04:36.461Z,26.33
2019-02-24T08:07:04.895Z,24.85
2019-02-24T08:09:33.296Z,23.05
2019-02-24T08:12:02.116Z,22.05
2019-02-24T08:14:30.592Z,23.38
2019-02-24T08:16:59.005Z,22.87
2019-02-24T08:19:27.419Z,23.90
2019-02-24T08:21:56.136Z,22.20
2019-02-24T08:24:24.543Z,22.13
2019-02-24T08:26:52.951Z,22.17
2019-02-24T08:29:21.385Z,21.07
2019-02-24T08:31:49.808Z,20.70
2019-02-24T08:34:18.216Z,22.02
2019-02-24T08:36:46.630Z,22.02
2019-02-24T08:39:15.032Z,22.37
2019-02-24T08:41:43.815Z,21.47
2019-02-24T08:44:12.272Z,20.20
2019-02-24T08:46:40.709Z,19.60
2019-02-24T08:49:09.108Z,19.23
2019-02-24T08:51:37.531Z,19.00
2019-02-24T08:54:05.971Z,20.17
2019-02-24T08:56:34.673Z,19.37
2019-02-24T08:59:03.105Z,18.80
2019-02-24T09:01:31.507Z,19.17
2019-02-24T09:03:59.923Z,19.52
2019-02-24T09:06:28.335Z,18.90
2019-02-24T09:08:56.771Z,19.20
2019-02-24T09:11:25.186Z,19.50
2019-02-24T09:13:53.684Z,20.27
2019-02-24T09:16:22.100Z,21.20
2019-02-24T09:18:50.540Z,20.70
2019-02-24T09:21:19.033Z,20.43
2019-02-24T09:23:47.439Z,20.00
2019-02-24T09:26:15.839Z,19.83
2019-02-24T09:28:44.250Z,19.60
2019-02-24T09:31:12.673Z,19.98
2019-02-24T09:33:41.092Z,20.15
2019-02-24T09:36:09.539Z,19.42
2019-02-24T09:38:37.951Z,19.15
2019-02-24T09:41:06.417Z,18.05
2019-02-24T09:43:34.847Z,19.70
2019-02-24T09:46:03.328Z,19.00
2019-02-24T09:48:31.724Z,19.07
2019-02-24T09:51:00.139Z,18.82
2019-02-24T09:53:28.572Z,19.50
2019-02-24T09:55:56.987Z,20.30
2019-02-24T09:58:25.412Z,19.60
2019-02-24T10:00:53.820Z,20.03
2019-02-24T10:03:22.256Z,19.45
2019-02-24T10:05:50.652Z,20.27
2019-02-24T10:08:19.093Z,20.15
2019-02-24T10:10:47.516Z,20.55
2019-02-24T10:13:15.922Z,20.20
2019-02-24T10:15:44.342Z,19.30
2019-02-24T10:18:12.764Z,19.25
2019-02-24T10:20:41.177Z,19.17
2019-02-24T10:23:09.603Z,19.50
2019-02-24T10:25:38.317Z,19.32
2019-02-24T10:28:06.741Z,19.98
2019-02-24T10:30:35.252Z,20.65
2019-02-24T10:33:03.731Z,19.27
2019-02-24T10:35:32.210Z,20.50
2019-02-24T10:38:00.709Z,20.08
2019-02-24T10:40:29.209Z,19.65
2019-02-24T10:42:57.619Z,18.70
2019-02-24T10:45:26.042Z,18.80
2019-02-24T10:47:54.462Z,17.82
2019-02-24T10:50:22.969Z,17.02
2019-02-24T10:52:57.283Z,17.65
2019-02-24T10:55:25.712Z,16.55
2019-02-24T10:57:54.215Z,18.10
2019-02-24T11:00:22.645Z,17.98
2019-02-24T11:02:51.064Z,17.67
2019-02-24T11:05:19.559Z,18.15
2019-02-24T11:07:47.960Z,17.40
2019-02-24T11:10:16.382Z,17.27
2019-02-24T11:12:44.792Z,18.23
2019-02-24T11:15:13.782Z,18.77
2019-02-24T11:17:42.191Z,18.10
2019-02-24T11:20:12.953Z,18.05
2019-02-24T11:22:41.363Z,17.40
2019-02-24T11:25:11.239Z,17.70
2019-02-24T11:27:39.697Z,18.85
2019-02-24T11:30:15.652Z,18.52
2019-02-24T11:32:44.029Z,17.70
2019-02-24T11:35:13.071Z,17.80
2019-02-24T11:37:41.586Z,17.37
2019-02-24T11:40:12.602Z,17.73
2019-02-24T11:42:41.018Z,17.37
2019-02-24T11:45:09.975Z,17.50
2019-02-24T11:47:38.566Z,17.57
2019-02-24T11:50:11.941Z,18.15
2019-02-24T11:52:40.350Z,17.42
2019-02-24T11:55:09.891Z,17.87
2019-02-24T11:57:38.717Z,16.10
2019-02-24T12:00:15.021Z,15.93
2019-02-24T12:02:43.600Z,15.83
2019-02-24T12:05:12.147Z,15.20
2019-02-24T12:07:40.878Z,15.03
2019-02-24T12:10:12.862Z,15.68
2019-02-24T12:12:41.280Z,16.55
2019-02-24T12:15:11.447Z,17.10
2019-02-24T12:17:39.870Z,19.95
2019-02-24T12:20:11.348Z,20.07
2019-02-24T12:22:39.775Z,22.27
2019-02-24T12:25:10.094Z,22.55
2019-02-24T12:27:38.522Z,21.97
2019-02-24T12:30:10.236Z,21.87
2019-02-24T12:32:38.756Z,21.10
2019-02-24T12:35:07.559Z,21.35
2019-02-24T12:37:36.012Z,19.73
2019-02-24T12:40:07.132Z,19.73
2019-02-24T12:42:35.553Z,20.15
2019-02-24T12:45:06.046Z,20.60
2019-02-24T12:47:34.576Z,19.98
2019-02-24T12:50:04.080Z,20.03
2019-02-24T12:52:32.488Z,20.32
2019-02-24T12:55:00.909Z,21.12
2019-02-24T12:57:29.328Z,19.60
2019-02-24T12:59:57.759Z,19.60
2019-02-24T13:02:26.179Z,21.00
2019-02-24T13:04:54.616Z,21.33
2019-02-24T13:07:23.075Z,20.77
2019-02-24T13:09:51.517Z,22.40
2019-02-24T13:12:19.929Z,21.02
2019-02-24T13:14:48.359Z,18.95
2019-02-24T13:17:16.789Z,21.70
2019-02-24T13:19:45.191Z,21.90
2019-02-24T13:22:13.594Z,19.35
2019-02-24T13:24:42.054Z,20.10
2019-02-24T13:27:10.455Z,37.90
2019-02-24T13:29:38.872Z,18.00
2019-02-24T13:32:14.611Z,25.05
2019-02-24T13:34:38.465Z,20.10
2019-02-24T13:37:06.869Z,21.42
2019-02-24T13:39:35.380Z,22.70
2019-02-24T13:42:03.788Z,24.60
2019-02-24T13:44:32.244Z,19.62
2019-02-24T13:47:00.651Z,18.60
2019-02-24T13:49:29.135Z,17.45
2019-02-24T13:51:57.566Z,18.00
2019-02-24T13:54:25.963Z,17.45
2019-02-24T13:56:54.494Z,16.30
2019-02-24T13:59:22.955Z,16.50
2019-02-24T14:01:51.364Z,15.72
2019-02-24T14:04:19.807Z,16.25
2019-02-24T14:06:48.283Z,14.87
2019-02-24T14:09:16.671Z,14.87
2019-02-24T14:11:45.104Z,15.20
2019-02-24T14:14:13.529Z,14.13
2019-02-24T14:16:41.936Z,15.60
2019-02-24T14:19:10.348Z,14.68
2019-02-24T14:21:38.777Z,14.35
2019-02-24T14:24:07.193Z,14.28
2019-02-24T14:26:35.598Z,15.03
2019-02-24T14:29:04.023Z,14.70
2019-02-24T14:31:32.456Z,16.07
2019-02-24T14:34:00.860Z,16.50
2019-02-24T14:36:29.289Z,16.00
2019-02-24T14:38:57.718Z,16.10
2019-02-24T14:41:26.123Z,17.52
2019-02-24T14:43:54.552Z,18.67
2019-02-24T14:46:23.026Z,18.40
2019-02-24T14:48:51.456Z,16.80
2019-02-24T14:51:19.909Z,17.75
2019-02-24T14:53:50.170Z,17.50
2019-02-24T14:56:18.715Z,16.37
2019-02-24T14:58:47.263Z,16.25
2019-02-24T15:01:15.736Z,15.85
2019-02-24T15:03:44.145Z,15.58
2019-02-24T15:06:12.556Z,15.72
2019-02-24T15:08:41.339Z,16.20
2019-02-24T15:11:14.378Z,17.00
2019-02-24T15:13:42.861Z,17.10
2019-02-24T15:16:11.813Z,16.65
2019-02-24T15:18:40.363Z,16.97
2019-02-24T15:21:08.799Z,17.27
2019-02-24T15:23:37.231Z,17.07
2019-02-24T15:26:05.691Z,16.67
2019-02-24T15:28:34.164Z,16.77
2019-02-24T15:31:02.578Z,16.80
2019-02-24T15:33:31.004Z,16.70
2019-02-24T15:35:59.743Z,17.32
2019-02-24T15:38:28.156Z,16.62
2019-02-24T15:40:56.596Z,16.15
2019-02-24T15:43:25.019Z,15.15
2019-02-24T15:45:53.469Z,16.30
2019-02-24T15:48:22.772Z,15.72
2019-02-24T15:50:51.203Z,15.83
2019-02-24T15:53:19.639Z,15.43
2019-02-24T15:55:48.072Z,15.60
2019-02-24T15:58:17.876Z,15.50
2019-02-24T16:00:46.489Z,15.57
2019-02-24T16:03:14.907Z,15.72
2019-02-24T16:05:43.638Z,15.60
2019-02-24T16:08:12.063Z,14.87
2019-02-24T16:10:40.491Z,15.03
2019-02-24T16:13:16.670Z,15.30
2019-02-24T16:15:39.055Z,15.35
2019-02-24T16:18:07.469Z,15.83
2019-02-24T16:20:37.330Z,16.20
2019-02-24T16:23:05.837Z,15.55
2019-02-24T16:25:34.288Z,16.20
2019-02-24T16:28:02.741Z,15.72
2019-02-24T16:30:31.156Z,17.80
2019-02-24T16:32:59.585Z,16.70
2019-02-24T16:35:28.045Z,18.37
2019-02-24T16:37:56.466Z,20.60
2019-02-24T16:40:28.926Z,20.08
2019-02-24T16:42:57.340Z,22.55
2019-02-24T16:45:25.738Z,20.00
2019-02-24T16:47:54.527Z,18.87
2019-02-24T16:50:24.267Z,17.82
2019-02-24T16:52:52.747Z,19.40
2019-02-24T16:55:21.169Z,18.87
2019-02-24T16:57:49.584Z,17.62
2019-02-24T17:00:26.177Z,17.60
2019-02-24T17:02:54.868Z,18.00
2019-02-24T17:05:26.045Z,19.48
2019-02-24T17:07:54.488Z,18.15
2019-02-24T17:10:24.733Z,18.12
2019-02-24T17:12:53.174Z,20.02
2019-02-24T17:15:21.596Z,20.80
2019-02-24T17:17:50.072Z,23.45
2019-02-24T17:20:20.420Z,21.35
2019-02-24T17:22:48.852Z,21.35
2019-02-24T17:25:17.326Z,20.10
2019-02-24T17:27:45.804Z,21.30
2019-02-24T17:30:16.051Z,21.55
2019-02-24T17:33:03.831Z,22.63
2019-02-24T17:35:32.236Z,22.07
2019-02-24T17:38:00.679Z,23.50
2019-02-24T17:40:29.084Z,23.07
2019-02-24T17:42:57.483Z,22.32
2019-02-24T17:45:25.926Z,22.20
2019-02-24T17:47:54.326Z,25.75
2019-02-24T17:50:22.776Z,26.48
2019-02-24T17:52:51.186Z,24.23
2019-02-24T17:55:20.075Z,25.43
2019-02-24T17:57:48.496Z,29.57
2019-02-24T18:00:26.524Z,30.82
2019-02-24T18:02:55.023Z,25.12
2019-02-24T18:05:23.779Z,26.25
2019-02-24T18:07:52.273Z,29.50
2019-02-24T18:10:20.687Z,28.55
2019-02-24T18:12:49.091Z,28.73
2019-02-24T18:15:17.556Z,26.95
2019-02-24T18:17:45.996Z,26.82
2019-02-24T18:20:19.235Z,25.40
2019-02-24T18:22:47.662Z,26.05
2019-02-24T18:25:16.276Z,24.05
2019-02-24T18:27:44.680Z,27.45
2019-02-24T18:30:18.755Z,27.50
2019-02-24T18:32:47.164Z,26.85
2019-02-24T18:35:15.593Z,28.65
2019-02-24T18:37:44.023Z,27.60
2019-02-24T18:40:13.971Z,27.25
2019-02-24T18:42:42.393Z,28.85
2019-02-24T18:45:12.447Z,28.60
2019-02-24T18:47:40.871Z,26.50
2019-02-24T18:50:14.763Z,27.65
2019-02-24T18:52:43.335Z,26.37
2019-02-24T18:55:12.598Z,27.27
2019-02-24T18:57:41.000Z,27.02
2019-02-24T19:00:20.381Z,26.10
2019-02-24T19:02:49.459Z,28.23
2019-02-24T19:05:17.900Z,28.73
2019-02-24T19:07:46.304Z,28.73
2019-02-24T19:10:22.309Z,27.60
2019-02-24T19:12:51.112Z,27.93
2019-02-24T19:15:21.271Z,28.98
2019-02-24T19:17:49.670Z,27.00
2019-02-24T19:20:22.214Z,28.40
2019-02-24T19:22:50.608Z,28.23
2019-02-24T19:25:19.184Z,27.85
2019-02-24T19:27:47.604Z,27.07
2019-02-24T19:30:19.988Z,28.73
2019-02-24T19:32:48.695Z,27.73
2019-02-24T19:35:18.462Z,27.55
2019-02-24T19:37:46.958Z,27.07
2019-02-24T19:40:19.083Z,28.23
2019-02-24T19:42:47.487Z,28.47
2019-02-24T19:45:28.079Z,29.72
2019-02-24T19:47:56.503Z,29.87
2019-02-24T19:50:24.911Z,30.17
2019-02-24T19:52:53.341Z,28.90
2019-02-24T19:55:21.728Z,30.27
2019-02-24T19:57:50.491Z,34.13
2019-02-24T20:00:24.049Z,41.30
2019-02-24T20:02:52.464Z,43.75
2019-02-24T20:05:21.407Z,38.67
2019-02-24T20:07:50.220Z,33.73
2019-02-24T20:10:23.520Z,28.50
2019-02-24T20:12:51.937Z,29.10
2019-02-24T20:15:20.350Z,32.98
2019-02-24T20:17:48.755Z,33.45
2019-02-24T20:20:17.427Z,32.13
2019-02-24T20:22:46.136Z,33.35
2019-02-24T20:25:16.299Z,33.15
2019-02-24T20:27:44.712Z,35.73
2019-02-24T20:30:30.836Z,33.90
2019-02-24T20:32:59.535Z,37.25
2019-02-24T20:35:27.948Z,45.65
2019-02-24T20:37:56.363Z,39.03
2019-02-24T20:40:25.164Z,39.20
2019-02-24T20:42:53.576Z,41.58
2019-02-24T20:45:23.676Z,44.23
2019-02-24T20:47:52.082Z,40.28
2019-02-24T20:50:23.588Z,38.40
2019-02-24T20:52:51.990Z,47.55
2019-02-24T20:55:20.687Z,46.02
2019-02-24T20:57:49.090Z,43.40
2019-02-24T21:00:20.528Z,40.73
2019-02-24T21:02:48.961Z,41.15
2019-02-24T21:05:17.358Z,37.48
2019-02-24T21:07:45.760Z,36.70
2019-02-24T21:10:14.177Z,38.28
2019-02-24T21:12:42.598Z,34.23
2019-02-24T21:15:13.547Z,33.18
2019-02-24T21:17:42.023Z,30.52
2019-02-24T21:20:16.530Z,29.05
2019-02-24T21:22:44.944Z,29.55
2019-02-24T21:25:13.349Z,27.42
2019-02-24T21:27:42.081Z,33.28
2019-02-24T21:30:16.559Z,34.03
2019-02-24T21:32:44.959Z,35.00
2019-02-24T21:35:13.822Z,34.70
2019-02-24T21:37:42.323Z,33.33
2019-02-24T21:40:13.175Z,35.15
2019-02-24T21:42:41.605Z,34.23
2019-02-24T21:45:15.539Z,34.40
2019-02-24T21:47:44.241Z,35.17
2019-02-24T21:50:15.105Z,41.60
2019-02-24T21:52:43.527Z,35.73
2019-02-24T21:55:12.463Z,33.30
2019-02-24T21:57:40.867Z,32.70
2019-02-24T22:00:21.014Z,30.52
2019-02-24T22:02:49.413Z,30.88
2019-02-24T22:05:17.840Z,30.62
2019-02-24T22:07:46.231Z,29.90
2019-02-24T22:10:15.692Z,33.18
2019-02-24T22:12:44.104Z,31.55
2019-02-24T22:15:15.680Z,34.30
2019-02-24T22:17:44.099Z,33.75
2019-02-24T22:20:14.460Z,34.93
2019-02-24T22:22:42.861Z,32.98
2019-02-24T22:25:12.716Z,32.65
2019-02-24T22:27:41.118Z,31.48
2019-02-24T22:30:12.844Z,31.68
2019-02-24T22:32:41.244Z,32.48
2019-02-24T22:35:10.206Z,36.83
2019-02-24T22:37:38.943Z,34.65
2019-02-24T22:40:11.854Z,38.05
2019-02-24T22:42:40.427Z,40.88
2019-02-24T22:45:20.616Z,41.18
2019-02-24T22:47:49.020Z,37.90
2019-02-24T22:50:17.727Z,33.65
2019-02-24T22:52:46.560Z,34.50
2019-02-24T22:55:16.173Z,49.18
2019-02-24T22:57:44.607Z,51.50
2019-02-24T23:00:45.301Z,46.92
2019-02-24T23:03:13.686Z,42.30
2019-02-24T23:05:42.111Z,54.45
2019-02-24T23:08:10.523Z,47.33
2019-02-24T23:10:38.955Z,38.60
2019-02-24T23:13:07.356Z,45.98
2019-02-24T23:15:35.767Z,57.50
2019-02-24T23:18:04.359Z,45.07
2019-02-24T23:20:32.772Z,67.67
2019-02-24T23:23:01.187Z,39.67
2019-02-24T23:25:29.583Z,36.65
2019-02-24T23:27:58.300Z,41.28
2019-02-24T23:30:26.701Z,42.40
2019-02-24T23:32:55.111Z,50.10
2019-02-24T23:35:23.526Z,37.50
2019-02-24T23:37:51.940Z,41.48
2019-02-24T23:40:20.354Z,47.15
2019-02-24T23:42:48.766Z,39.40
2019-02-24T23:45:17.171Z,37.63
2019-02-24T23:47:45.581Z,41.37
2019-02-24T23:50:13.985Z,39.67
2019-02-24T23:52:42.387Z,39.88
2019-02-24T23:55:11.464Z,39.38
2019-02-24T23:57:39.961Z,43.93
